createdAt,value
2023-03-04T00:02:06.663Z,99783.61
2023-03-04T00:04:37.253Z,99781.38
2023-03-04T00:07:06.228Z,99768.53
2023-03-04T00:09:36.425Z,99781.19
2023-03-04T00:12:07.653Z,99779.99
2023-03-04T00:14:37.198Z,99772.05
2023-03-04T00:17:08.732Z,99767.81
2023-03-04T00:19:39.686Z,99772.17
2023-03-04T00:22:08.591Z,99760.48
2023-03-04T00:24:38.902Z,99759.80
2023-03-04T00:27:07.450Z,99758.61
2023-03-04T00:29:36.358Z,99751.52
2023-03-04T00:32:06.123Z,99759.07
2023-03-04T00:34:36.263Z,99762.23
2023-03-04T00:37:06.417Z,99763.55
2023-03-04T00:39:35.200Z,99751.91
2023-03-04T00:42:04.348Z,99750.05
2023-03-04T00:44:33.786Z,99745.50
2023-03-04T00:47:02.414Z,99750.87
2023-03-04T00:49:32.739Z,99745.59
2023-03-04T00:52:01.710Z,99743.52
2023-03-04T00:54:31.957Z,99746.36
2023-03-04T00:57:01.188Z,99743.47
2023-03-04T00:59:29.921Z,99729.14
2023-03-04T01:01:58.860Z,99722.55
2023-03-04T01:04:28.733Z,99722.73
2023-03-04T01:06:57.871Z,99724.74
2023-03-04T01:09:27.989Z,99727.59
2023-03-04T01:11:57.671Z,99718.15
2023-03-04T01:14:26.690Z,99713.95
2023-03-04T01:16:55.488Z,99714.80
2023-03-04T01:19:26.858Z,99712.25
2023-03-04T01:21:55.570Z,99709.05
2023-03-04T01:24:26.018Z,99702.66
2023-03-04T01:26:54.780Z,99697.76
2023-03-04T01:29:28.109Z,99702.66
2023-03-04T01:31:58.170Z,99694.41
2023-03-04T01:34:27.116Z,99702.50
2023-03-04T01:36:55.831Z,99695.22
2023-03-04T01:39:24.740Z,99696.69
2023-03-04T01:41:55.157Z,99702.20
2023-03-04T01:44:25.253Z,99701.16
2023-03-04T01:46:55.750Z,99700.47
2023-03-04T01:49:26.218Z,99694.22
2023-03-04T01:51:55.013Z,99698.77
2023-03-04T01:54:23.868Z,99691.68
2023-03-04T01:56:54.442Z,99685.09
2023-03-04T01:59:25.901Z,99683.39
2023-03-04T02:01:57.294Z,99680.20
2023-03-04T02:04:30.256Z,99676.45
2023-03-04T02:06:58.991Z,99672.22
2023-03-04T02:09:29.381Z,99670.98
2023-03-04T02:11:57.976Z,99671.80
2023-03-04T02:14:26.846Z,99665.52
2023-03-04T02:16:57.382Z,99668.02
2023-03-04T02:19:52.165Z,99668.52
2023-03-04T02:22:21.866Z,99665.98
2023-03-04T02:25:03.048Z,99670.87
2023-03-04T02:27:32.009Z,99664.59
2023-03-04T02:30:00.839Z,99660.00
2023-03-04T02:32:31.087Z,99659.16
2023-03-04T02:35:01.322Z,99659.00
2023-03-04T02:37:30.921Z,99655.61
2023-03-04T02:39:59.614Z,99654.57
2023-03-04T02:42:28.136Z,99655.92
2023-03-04T02:45:00.998Z,99646.14
2023-03-04T02:47:30.141Z,99632.50
2023-03-04T02:49:59.913Z,99623.41
2023-03-04T02:52:30.244Z,99621.72
2023-03-04T02:54:59.459Z,99620.37
2023-03-04T02:57:28.335Z,99622.56
2023-03-04T02:59:57.037Z,99623.06
2023-03-04T03:02:28.126Z,99620.03
2023-03-04T03:04:56.946Z,99617.18
2023-03-04T03:07:27.352Z,99618.18
2023-03-04T03:09:57.549Z,99607.40
2023-03-04T03:12:26.487Z,99608.40
2023-03-04T03:14:55.251Z,99603.98
2023-03-04T03:17:24.938Z,99611.72
2023-03-04T03:19:55.006Z,99605.98
2023-03-04T03:22:25.259Z,99601.09
2023-03-04T03:24:55.769Z,99596.35
2023-03-04T03:27:24.437Z,99595.31
2023-03-04T03:29:53.135Z,99597.00
2023-03-04T03:32:22.053Z,99596.35
2023-03-04T03:34:52.960Z,99593.66
2023-03-04T03:37:22.000Z,99590.11
2023-03-04T03:39:50.735Z,99593.50
2023-03-04T03:42:19.777Z,99580.72
2023-03-04T03:44:50.071Z,99593.07
2023-03-04T03:47:18.697Z,99584.83
2023-03-04T03:49:47.809Z,99574.73
2023-03-04T03:52:17.503Z,99587.38
2023-03-04T03:54:46.734Z,99578.78
2023-03-04T03:57:15.465Z,99583.02
2023-03-04T03:59:44.552Z,99574.93
2023-03-04T04:02:14.931Z,99568.00
2023-03-04T04:04:45.129Z,99559.41
2023-03-04T04:07:15.069Z,99556.22
2023-03-04T04:09:46.332Z,99558.41
2023-03-04T04:12:16.690Z,99556.91
2023-03-04T04:14:47.024Z,99546.97
2023-03-04T04:17:15.796Z,99547.81
2023-03-04T04:19:44.884Z,99552.20
2023-03-04T04:22:18.349Z,99535.02
2023-03-04T04:24:48.973Z,99521.58
2023-03-04T04:27:19.303Z,99523.45
2023-03-04T04:29:47.802Z,99511.01
2023-03-04T04:32:16.902Z,99507.81
2023-03-04T04:34:46.793Z,99504.61
2023-03-04T04:37:15.924Z,99500.75
2023-03-04T04:39:44.678Z,99487.61
2023-03-04T04:42:13.896Z,99474.48
2023-03-04T04:44:46.248Z,99465.72
2023-03-04T04:47:15.212Z,99460.02
2023-03-04T04:49:44.749Z,99462.05
2023-03-04T04:52:13.391Z,99456.15
2023-03-04T04:54:42.224Z,99455.16
2023-03-04T04:57:10.900Z,99461.75
2023-03-04T04:59:40.717Z,99458.05
2023-03-04T05:02:10.838Z,99453.84
2023-03-04T05:04:41.057Z,99454.69
2023-03-04T05:07:09.897Z,99447.63
2023-03-04T05:09:39.276Z,99445.27
2023-03-04T05:12:08.297Z,99448.30
2023-03-04T05:14:37.283Z,99444.60
2023-03-04T05:17:07.301Z,99432.80
2023-03-04T05:19:35.904Z,99420.84
2023-03-04T05:22:06.114Z,99425.39
2023-03-04T05:24:35.255Z,99419.50
2023-03-04T05:27:04.351Z,99427.59
2023-03-04T05:29:33.430Z,99422.53
2023-03-04T05:32:02.355Z,99415.63
2023-03-04T05:34:32.208Z,99414.63
2023-03-04T05:37:01.159Z,99417.34
2023-03-04T05:39:30.416Z,99412.63
2023-03-04T05:42:01.268Z,99414.31
2023-03-04T05:44:30.876Z,99407.11
2023-03-04T05:46:59.818Z,99420.94
2023-03-04T05:49:28.545Z,99408.64
2023-03-04T05:51:57.970Z,99413.37
2023-03-04T05:54:26.689Z,99408.99
2023-03-04T05:56:55.336Z,99411.19
2023-03-04T05:59:24.750Z,99402.42
2023-03-04T06:01:54.757Z,99395.85
2023-03-04T06:04:24.102Z,99393.16
2023-03-04T06:06:54.614Z,99395.03
2023-03-04T06:09:25.182Z,99387.45
2023-03-04T06:11:55.818Z,99394.20
2023-03-04T06:14:27.307Z,99387.29
2023-03-04T06:16:57.788Z,99383.41
2023-03-04T06:19:26.860Z,99384.08
2023-03-04T06:21:56.016Z,99370.92
2023-03-04T06:24:24.763Z,99367.72
2023-03-04T06:26:54.339Z,99358.11
2023-03-04T06:29:23.981Z,99365.70
2023-03-04T06:31:52.835Z,99362.33
2023-03-04T06:34:22.608Z,99368.23
2023-03-04T06:36:51.222Z,99362.16
2023-03-04T06:39:20.171Z,99360.48
2023-03-04T06:41:49.315Z,99358.97
2023-03-04T06:44:17.997Z,99361.67
2023-03-04T06:46:47.177Z,99363.36
2023-03-04T06:49:16.291Z,99354.41
2023-03-04T06:51:45.965Z,99358.80
2023-03-04T06:54:16.226Z,99345.63
2023-03-04T06:56:45.251Z,99345.16
2023-03-04T06:59:14.159Z,99346.34
2023-03-04T07:01:42.684Z,99340.09
2023-03-04T07:04:13.448Z,99339.59
2023-03-04T07:06:42.486Z,99328.94
2023-03-04T07:09:11.148Z,99332.66
2023-03-04T07:11:41.090Z,99330.79
2023-03-04T07:14:09.954Z,99325.04
2023-03-04T07:16:39.747Z,99315.91
2023-03-04T07:19:09.716Z,99316.24
2023-03-04T07:21:40.069Z,99302.05
2023-03-04T07:24:10.133Z,99300.34
2023-03-04T07:26:38.897Z,99303.72
2023-03-04T07:29:07.629Z,99292.05
2023-03-04T07:31:36.760Z,99295.59
2023-03-04T07:34:08.112Z,99295.77
2023-03-04T07:36:37.736Z,99292.21
2023-03-04T07:39:08.400Z,99293.21
2023-03-04T07:41:38.322Z,99290.83
2023-03-04T07:44:07.736Z,99295.38
2023-03-04T07:46:37.969Z,99277.95
2023-03-04T07:49:06.774Z,99288.09
2023-03-04T07:51:35.842Z,99279.80
2023-03-04T07:54:04.616Z,99286.38
2023-03-04T07:56:34.564Z,99285.52
2023-03-04T07:59:03.975Z,99290.58
2023-03-04T08:01:37.646Z,99281.45
2023-03-04T08:04:07.128Z,99268.59
2023-03-04T08:06:37.153Z,99275.84
2023-03-04T08:09:08.739Z,99278.02
2023-03-04T08:11:38.897Z,99267.34
2023-03-04T08:14:09.007Z,99271.73
2023-03-04T08:16:38.041Z,99285.58
2023-03-04T08:19:07.748Z,99261.53
2023-03-04T08:21:36.481Z,99265.03
2023-03-04T08:24:08.450Z,99276.34
2023-03-04T08:26:43.106Z,99267.52
2023-03-04T08:29:16.298Z,99267.81
2023-03-04T08:31:48.686Z,99257.31
2023-03-04T08:34:17.881Z,99270.80
2023-03-04T08:36:47.068Z,99269.77
2023-03-04T08:39:17.908Z,99257.26
2023-03-04T08:41:47.444Z,99257.29
2023-03-04T08:44:16.304Z,99260.38
2023-03-04T08:46:45.406Z,99270.76
2023-03-04T08:49:15.544Z,99269.45
2023-03-04T08:51:45.351Z,99265.39
2023-03-04T08:54:14.018Z,99272.69
2023-03-04T08:56:44.094Z,99268.98
2023-03-04T08:59:13.016Z,99270.01
2023-03-04T09:01:43.641Z,99266.61
2023-03-04T09:04:12.995Z,99257.11
2023-03-04T09:06:41.706Z,99254.56
2023-03-04T09:09:10.773Z,99260.82
2023-03-04T09:11:41.291Z,99252.01
2023-03-04T09:14:10.211Z,99251.33
2023-03-04T09:16:40.123Z,99242.33
2023-03-04T09:19:08.714Z,99227.52
2023-03-04T09:21:39.102Z,99228.63
2023-03-04T09:24:08.314Z,99228.55
2023-03-04T09:26:37.749Z,99229.99
2023-03-04T09:29:08.046Z,99227.78
2023-03-04T09:31:36.997Z,99226.41
2023-03-04T09:34:07.961Z,99229.20
2023-03-04T09:36:37.208Z,99243.45
2023-03-04T09:39:07.510Z,99228.25
2023-03-04T09:41:45.824Z,99221.99
2023-03-04T09:44:37.172Z,99219.75
2023-03-04T09:47:10.352Z,99211.95
2023-03-04T09:49:45.450Z,99217.85
2023-03-04T09:52:32.414Z,99214.81
2023-03-04T09:55:14.892Z,99212.47
2023-03-04T09:57:50.647Z,99208.92
2023-03-04T10:00:28.253Z,99223.49
2023-03-04T10:03:14.745Z,99192.16
2023-03-04T10:06:06.250Z,99207.27
2023-03-04T10:08:59.227Z,99208.95
2023-03-04T10:11:50.943Z,99205.55
2023-03-04T10:14:32.186Z,99202.88
2023-03-04T10:17:05.494Z,99207.50
2023-03-04T10:19:50.651Z,99206.84
2023-03-04T10:22:37.110Z,99205.52
2023-03-04T10:25:22.162Z,99202.19
2023-03-04T10:27:57.897Z,99191.91
2023-03-04T10:30:56.309Z,99186.52
2023-03-04T10:33:38.195Z,99187.88
2023-03-04T10:36:33.497Z,99186.85
2023-03-04T10:39:11.640Z,99191.94
2023-03-04T10:41:46.777Z,99184.98
2023-03-04T10:44:17.630Z,99179.09
2023-03-04T10:46:48.717Z,99187.11
2023-03-04T10:49:19.478Z,99174.44
2023-03-04T10:51:57.708Z,99164.34
2023-03-04T10:54:42.410Z,99174.55
2023-03-04T10:57:17.782Z,99169.13
2023-03-04T11:00:00.133Z,99171.87
2023-03-04T11:02:34.790Z,99153.28
2023-03-04T11:05:22.615Z,99148.20
2023-03-04T11:07:57.034Z,99133.14
2023-03-04T11:10:38.193Z,99126.33
2023-03-04T11:13:24.281Z,99139.83
2023-03-04T11:15:58.617Z,99125.38
2023-03-04T11:18:48.520Z,99124.24
2023-03-04T11:21:25.866Z,99129.14
2023-03-04T11:24:04.618Z,99125.48
2023-03-04T11:26:42.820Z,99134.03
2023-03-04T11:29:22.659Z,99129.26
2023-03-04T11:32:11.676Z,99118.66
2023-03-04T11:35:18.336Z,99127.13
2023-03-04T11:38:12.322Z,99119.50
2023-03-04T11:40:51.822Z,99116.48
2023-03-04T11:43:29.927Z,99129.05
2023-03-04T11:46:33.440Z,99109.45
2023-03-04T11:49:10.533Z,99111.33
2023-03-04T11:51:44.870Z,99120.77
2023-03-04T11:54:39.589Z,99103.92
2023-03-04T11:57:22.873Z,99098.22
2023-03-04T12:00:04.590Z,99100.50
2023-03-04T12:02:58.140Z,99093.12
2023-03-04T12:05:58.450Z,99090.64
2023-03-04T12:08:48.577Z,99100.45
2023-03-04T12:12:07.345Z,99094.00
2023-03-04T12:14:48.753Z,99109.41
2023-03-04T12:17:34.911Z,99087.94
2023-03-04T12:20:34.875Z,99078.50
2023-03-04T12:23:27.092Z,99082.23
2023-03-04T12:26:27.275Z,99085.69
2023-03-04T12:29:01.596Z,99088.36
2023-03-04T12:31:43.520Z,99079.39
2023-03-04T12:34:30.624Z,99111.42
2023-03-04T12:37:36.830Z,99087.79
2023-03-04T12:40:29.132Z,99093.91
2023-03-04T12:43:41.235Z,99085.92
2023-03-04T12:46:29.824Z,99085.84
2023-03-04T12:49:22.993Z,99082.71
2023-03-04T12:51:58.292Z,99085.56
2023-03-04T12:54:36.736Z,99080.80
2023-03-04T12:57:24.914Z,99091.27
2023-03-04T13:00:30.065Z,99088.03
2023-03-04T13:03:34.866Z,99092.29
2023-03-04T13:06:13.497Z,99098.22
2023-03-04T13:09:21.758Z,99086.07
2023-03-04T13:12:01.718Z,99088.83
2023-03-04T13:14:31.900Z,99099.52
2023-03-04T13:17:22.103Z,99082.38
2023-03-04T13:19:57.579Z,99091.53
2023-03-04T13:22:41.235Z,99088.36
2023-03-04T13:25:36.432Z,99079.58
2023-03-04T13:28:15.664Z,99090.12
2023-03-04T13:31:11.309Z,99084.56
2023-03-04T13:33:46.990Z,99073.45
2023-03-04T13:39:37.994Z,99072.98
2023-03-04T13:42:12.439Z,99076.86
2023-03-04T13:44:53.649Z,99068.78
2023-03-04T13:47:30.206Z,99062.89
2023-03-04T13:50:29.703Z,99064.76
2023-03-04T13:53:02.371Z,99065.59
2023-03-04T13:55:38.416Z,99046.83
2023-03-04T13:58:20.295Z,99048.52
2023-03-04T14:00:53.086Z,99044.45
2023-03-04T14:03:28.019Z,99051.78
2023-03-04T14:06:14.307Z,99037.59
2023-03-04T14:08:42.890Z,99037.73
2023-03-04T14:11:26.212Z,99037.69
2023-03-04T14:13:56.274Z,99039.23
2023-03-04T14:16:28.897Z,99039.27
2023-03-04T14:19:04.213Z,99040.11
2023-03-04T14:21:33.878Z,99049.58
2023-03-04T14:24:09.218Z,99055.66
2023-03-04T14:26:38.921Z,99039.92
2023-03-04T14:29:27.381Z,99044.87
2023-03-04T14:31:56.877Z,99050.32
2023-03-04T14:34:36.663Z,99050.32
2023-03-04T14:37:26.997Z,99042.90
2023-03-04T14:39:57.974Z,99038.69
2023-03-04T14:42:32.160Z,99037.52
2023-03-04T14:45:00.897Z,99042.11
2023-03-04T14:47:37.707Z,99044.81
2023-03-04T14:50:10.215Z,99041.73
2023-03-04T14:52:45.812Z,99036.69
2023-03-04T14:55:23.260Z,99039.72
2023-03-04T14:57:58.746Z,99027.72
2023-03-04T15:00:33.273Z,99032.78
2023-03-04T15:03:04.245Z,99028.06
2023-03-04T15:05:35.448Z,99029.41
2023-03-04T15:08:29.761Z,99028.89
2023-03-04T15:11:06.951Z,99030.58
2023-03-04T15:13:50.980Z,99028.06
2023-03-04T15:16:27.745Z,99032.82
2023-03-04T15:19:06.960Z,99026.23
2023-03-04T15:21:42.776Z,99032.53
2023-03-04T15:24:13.623Z,99030.84
2023-03-04T15:26:49.414Z,99032.53
2023-03-04T15:29:20.002Z,99031.69
2023-03-04T15:31:49.558Z,99032.86
2023-03-04T15:34:19.961Z,99020.87
2023-03-04T15:36:50.342Z,99024.92
2023-03-04T15:39:19.462Z,99025.95
2023-03-04T15:41:50.996Z,99022.55
2023-03-04T15:44:19.980Z,99023.90
2023-03-04T15:46:49.176Z,99032.53
2023-03-04T15:49:17.640Z,99024.74
2023-03-04T15:51:49.113Z,99019.98
2023-03-04T15:54:20.172Z,99023.30
2023-03-04T15:56:50.041Z,99025.34
2023-03-04T15:59:19.080Z,99012.66
2023-03-04T16:01:49.395Z,99026.38
2023-03-04T16:04:23.974Z,99023.16
2023-03-04T16:06:53.421Z,99023.67
2023-03-04T16:09:22.739Z,99021.99
2023-03-04T16:11:53.530Z,99018.30
2023-03-04T16:14:24.292Z,99027.81
2023-03-04T16:16:53.770Z,99026.83
2023-03-04T16:19:22.551Z,99013.85
2023-03-04T16:21:51.381Z,99022.33
2023-03-04T16:24:21.827Z,99013.05
2023-03-04T16:26:52.514Z,99014.77
2023-03-04T16:29:21.629Z,99007.53
2023-03-04T16:31:53.923Z,99013.45
2023-03-04T16:34:22.830Z,99008.70
2023-03-04T16:36:51.803Z,99008.05
2023-03-04T16:39:23.241Z,99006.84
2023-03-04T16:41:52.747Z,99017.98
2023-03-04T16:44:21.480Z,99013.45
2023-03-04T16:46:51.963Z,99006.03
2023-03-04T16:49:21.272Z,99006.07
2023-03-04T16:51:50.485Z,98997.81
2023-03-04T16:54:23.881Z,98998.32
2023-03-04T16:56:54.735Z,98993.42
2023-03-04T16:59:23.424Z,98985.82
2023-03-04T17:01:53.750Z,98986.66
2023-03-04T17:04:24.005Z,98976.21
2023-03-04T17:06:52.674Z,98983.66
2023-03-04T17:09:21.538Z,98977.92
2023-03-04T17:11:52.594Z,98977.27
2023-03-04T17:14:23.181Z,98976.10
2023-03-04T17:16:51.977Z,98962.77
2023-03-04T17:19:22.774Z,98970.03
2023-03-04T17:21:52.030Z,98971.20
2023-03-04T17:24:21.290Z,98970.00
2023-03-04T17:26:52.178Z,98974.71
2023-03-04T17:29:22.418Z,98967.44
2023-03-04T17:31:51.216Z,98960.86
2023-03-04T17:34:20.307Z,98967.98
2023-03-04T17:36:48.901Z,98968.17
2023-03-04T17:39:17.723Z,98951.11
2023-03-04T17:41:46.575Z,98956.15
2023-03-04T17:44:16.965Z,98954.28
2023-03-04T17:46:48.244Z,98962.40
2023-03-04T17:49:18.261Z,98956.15
2023-03-04T17:51:47.112Z,98946.54
2023-03-04T17:54:16.343Z,98947.56
2023-03-04T17:56:46.832Z,98957.20
2023-03-04T17:59:16.776Z,98957.72
2023-03-04T18:01:46.621Z,98950.12
2023-03-04T18:04:16.614Z,98942.84
2023-03-04T18:06:46.526Z,98944.71
2023-03-04T18:09:16.531Z,98934.08
2023-03-04T18:11:46.388Z,98937.15
2023-03-04T18:14:15.680Z,98923.67
2023-03-04T18:16:46.043Z,98933.28
2023-03-04T18:19:16.869Z,98927.72
2023-03-04T18:21:48.776Z,98927.21
2023-03-04T18:24:17.768Z,98932.11
2023-03-04T18:26:46.455Z,98940.55
2023-03-04T18:29:15.411Z,98940.55
2023-03-04T18:31:46.162Z,98919.44
2023-03-04T18:34:15.131Z,98922.14
2023-03-04T18:36:44.274Z,98927.55
2023-03-04T18:39:16.384Z,98918.59
2023-03-04T18:41:45.475Z,98918.92
2023-03-04T18:44:14.769Z,98912.67
2023-03-04T18:46:48.235Z,98919.09
2023-03-04T18:49:17.645Z,98907.59
2023-03-04T18:51:49.627Z,98909.97
2023-03-04T18:54:18.559Z,98904.38
2023-03-04T18:56:56.470Z,98915.38
2023-03-04T18:59:31.096Z,98924.66
2023-03-04T19:02:02.309Z,98911.98
2023-03-04T19:04:31.423Z,98907.92
2023-03-04T19:07:00.647Z,98898.27
2023-03-04T19:09:29.983Z,98902.33
2023-03-04T19:11:58.831Z,98904.19
2023-03-04T19:14:29.280Z,98898.78
2023-03-04T19:16:58.548Z,98898.78
2023-03-04T19:19:27.632Z,98898.13
2023-03-04T19:21:58.250Z,98895.42
2023-03-04T19:24:28.446Z,98890.86
2023-03-04T19:26:58.056Z,98873.14
2023-03-04T19:29:28.203Z,98881.59
2023-03-04T19:31:58.920Z,98876.03
2023-03-04T19:34:28.887Z,98878.41
2023-03-04T19:36:57.823Z,98873.70
2023-03-04T19:39:27.883Z,98868.48
2023-03-04T19:41:57.142Z,98858.17
2023-03-04T19:44:27.074Z,98873.88
2023-03-04T19:46:57.981Z,98854.45
2023-03-04T19:49:28.322Z,98872.86
2023-03-04T19:51:57.721Z,98854.78
2023-03-04T19:54:28.171Z,98859.06
2023-03-04T19:57:00.016Z,98864.13
2023-03-04T19:59:29.617Z,98858.73
2023-03-04T20:02:01.168Z,98858.22
2023-03-04T20:04:30.082Z,98857.37
2023-03-04T20:07:00.589Z,98865.16
2023-03-04T20:09:29.503Z,98848.94
2023-03-04T20:11:59.546Z,98848.28
2023-03-04T20:14:28.782Z,98845.91
2023-03-04T20:17:03.662Z,98845.73
2023-03-04T20:19:33.292Z,98850.63
2023-03-04T20:22:02.397Z,98850.44
2023-03-04T20:24:31.507Z,98846.52
2023-03-04T20:27:01.964Z,98838.74
2023-03-04T20:29:30.665Z,98846.34
2023-03-04T20:31:59.553Z,98840.42
2023-03-04T20:34:29.657Z,98832.45
2023-03-04T20:37:00.164Z,98834.97
2023-03-04T20:39:30.040Z,98828.22
2023-03-04T20:42:00.316Z,98839.03
2023-03-04T20:44:30.708Z,98847.47
2023-03-04T20:46:59.964Z,98884.30
2023-03-04T20:49:28.807Z,98902.78
2023-03-04T20:52:02.421Z,98934.03
2023-03-04T20:54:31.099Z,98920.25
2023-03-04T20:57:00.429Z,98935.95
2023-03-04T20:59:30.479Z,98934.02
2023-03-04T21:01:59.977Z,98929.50
2023-03-04T21:04:31.367Z,98947.23
2023-03-04T21:07:02.109Z,98948.41
2023-03-04T21:09:34.195Z,98960.06
2023-03-04T21:12:05.421Z,98966.16
2023-03-04T21:14:36.515Z,98977.63
2023-03-04T21:17:05.891Z,98963.45
2023-03-04T21:19:40.041Z,98980.98
2023-03-04T21:22:20.894Z,98986.22
2023-03-04T21:24:49.972Z,98987.41
2023-03-04T21:27:20.561Z,98989.44
2023-03-04T21:29:50.099Z,98987.08
2023-03-04T21:32:25.633Z,98987.77
2023-03-04T21:34:55.777Z,98999.40
2023-03-04T21:37:25.234Z,99000.91
2023-03-04T21:39:55.926Z,99011.53
2023-03-04T21:42:25.302Z,99015.07
2023-03-04T21:44:55.520Z,99017.27
2023-03-04T21:47:24.974Z,99002.44
2023-03-04T21:49:53.869Z,99006.32
2023-03-04T21:52:22.736Z,99017.61
2023-03-04T21:54:51.743Z,99021.31
2023-03-04T21:57:20.420Z,99007.81
2023-03-04T21:59:51.300Z,99008.31
2023-03-04T22:02:21.599Z,99000.23
2023-03-04T22:04:51.806Z,99000.09
2023-03-04T22:07:21.204Z,99003.09
2023-03-04T22:09:50.198Z,99002.59
2023-03-04T22:12:19.780Z,98998.38
2023-03-04T22:14:49.940Z,99001.91
2023-03-04T22:17:18.680Z,98991.47
2023-03-04T22:19:47.869Z,98994.50
2023-03-04T22:22:18.686Z,99003.77
2023-03-04T22:24:48.303Z,99006.80
2023-03-04T22:27:16.824Z,99014.38
2023-03-04T22:29:46.755Z,99008.48
2023-03-04T22:32:17.142Z,99011.18
2023-03-04T22:34:47.045Z,99004.27
2023-03-04T22:37:17.833Z,99003.09
2023-03-04T22:39:46.605Z,99012.69
2023-03-04T22:42:15.444Z,99013.70
2023-03-04T22:44:44.721Z,99013.53
2023-03-04T22:47:13.466Z,99034.92
2023-03-04T22:49:42.023Z,99046.71
2023-03-04T22:52:12.266Z,99036.61
2023-03-04T22:54:42.120Z,99037.62
2023-03-04T22:57:13.097Z,99055.80
2023-03-04T22:59:42.802Z,99058.50
2023-03-04T23:02:13.166Z,99061.20
2023-03-04T23:04:43.584Z,99058.33
2023-03-04T23:07:12.470Z,99073.98
2023-03-04T23:09:42.714Z,99080.88
2023-03-04T23:12:12.627Z,99092.48
2023-03-04T23:14:43.506Z,99075.48
2023-03-04T23:17:12.772Z,99097.02
2023-03-04T23:19:41.839Z,99074.45
2023-03-04T23:22:13.039Z,99099.02
2023-03-04T23:24:43.049Z,99096.98
2023-03-04T23:27:12.124Z,99084.17
2023-03-04T23:29:42.172Z,99075.23
2023-03-04T23:32:11.304Z,99098.97
2023-03-04T23:34:42.086Z,99098.28
2023-03-04T23:37:11.850Z,99100.41
2023-03-04T23:39:40.344Z,99110.16
2023-03-04T23:42:09.574Z,99093.48
2023-03-04T23:44:38.808Z,99105.10
2023-03-04T23:47:08.516Z,99104.92
2023-03-04T23:49:37.170Z,99101.20
2023-03-04T23:52:07.467Z,99114.16
2023-03-04T23:54:36.685Z,99112.14
2023-03-04T23:57:06.028Z,99119.87
2023-03-04T23:59:35.433Z,99122.20
